Time;durP1;ratioP1;P1;durP2;ratioP2;P2;SDS_P1;SDS_P2;PMS_P1;PMS_P2;Temp;Humidity;BMP_temperature;BMP_pressure;BME280_temperature;BME280_humidity;BME280_pressure;Samples;Min_cycle;Max_cycle;Signal;HPM_P1;HPM_P2
2021/12/02 00:00:48;;;;;;;;;;;5.00;99.90;;;;;;5038391;28;19913;-61
2021/12/02 00:03:13;;;;;;;;;;;5.00;99.90;;;;;;5035924;28;19929;-63
2021/12/02 00:05:39;;;;;;;;;;;5.00;99.90;;;;;;5033046;28;19920;-63
2021/12/02 00:08:05;;;;;;;;;;;5.00;99.90;;;;;;5033961;28;19913;-62
2021/12/02 00:10:31;;;;;;;;;;;5.00;99.90;;;;;;5032647;28;19920;-62
2021/12/02 00:12:58;;;;;;;;;;;5.00;99.90;;;;;;5037425;28;19917;-62
2021/12/02 00:15:28;;;;;;;;;;;5.00;99.90;;;;;;5033934;28;19920;-64
2021/12/02 00:18:19;;;;;;;;;;;5.00;99.90;;;;;;5044600;28;19921;-64
2021/12/02 00:23:29;;;;;;;;;;;5.00;99.90;;;;;;5036856;28;19923;-63
2021/12/02 00:25:58;;;;;;;;;;;5.10;99.90;;;;;;5047686;28;19917;-63
2021/12/02 00:28:24;;;;;;;;;;;5.10;99.90;;;;;;5046806;28;19913;-62
2021/12/02 00:30:50;;;;;;;;;;;5.10;99.90;;;;;;5030813;28;20302;-63
2021/12/02 00:33:16;;;;;;;;;;;5.10;99.90;;;;;;5032807;28;19917;-63
2021/12/02 00:35:43;;;;;;;;;;;5.10;99.90;;;;;;5048373;28;19913;-64
2021/12/02 00:38:09;;;;;;;;;;;5.10;99.90;;;;;;5033630;28;19920;-63
2021/12/02 00:40:34;;;;;;;;;;;5.00;99.90;;;;;;5035520;28;19917;-64
2021/12/02 00:43:01;;;;;;;;;;;5.00;99.90;;;;;;5034264;28;19970;-63
2021/12/02 00:45:26;;;;;;;;;;;4.90;99.90;;;;;;5036199;28;19992;-64
2021/12/02 00:47:52;;;;;;;;;;;4.80;99.90;;;;;;5039937;28;20050;-64
2021/12/02 00:50:18;;;;;;;;;;;4.70;99.90;;;;;;5037437;28;20380;-63
2021/12/02 00:52:44;;;;;;;;;;;4.70;99.90;;;;;;5034191;28;19932;-62
2021/12/02 00:55:09;;;;;;;;;;;4.70;99.90;;;;;;5035011;28;20628;-64
2021/12/02 00:57:38;;;;;;;;;;;4.60;99.90;;;;;;5051632;28;20342;-63
2021/12/02 01:00:05;;;;;;;;;;;4.60;99.90;;;;;;5039295;28;19920;-62
2021/12/02 01:02:32;;;;;;;;;;;4.60;99.90;;;;;;5035827;28;20395;-63
2021/12/02 01:04:59;;;;;;;;;;;4.60;99.90;;;;;;5038814;28;19932;-63
2021/12/02 01:07:25;;;;;;;;;;;4.60;99.90;;;;;;5041221;28;19920;-63
2021/12/02 01:09:50;;;;;;;;;;;4.60;99.90;;;;;;5036285;28;19913;-63
2021/12/02 01:12:17;;;;;;;;;;;4.60;99.90;;;;;;5036748;28;19917;-63
2021/12/02 01:14:45;;;;;;;;;;;4.60;99.90;;;;;;5036469;28;19924;-63
2021/12/02 01:17:11;;;;;;;;;;;4.60;99.90;;;;;;5037660;28;19913;-64
2021/12/02 01:19:37;;;;;;;;;;;4.60;99.90;;;;;;5038398;28;19924;-63
2021/12/02 01:22:03;;;;;;;;;;;4.60;99.90;;;;;;5041266;28;20000;-61
2021/12/02 01:24:28;;;;;;;;;;;4.60;99.90;;;;;;5036595;28;19917;-62
2021/12/02 01:26:55;;;;;;;;;;;4.60;99.90;;;;;;5035876;28;19913;-64
2021/12/02 01:29:21;;;;;;;;;;;4.60;99.90;;;;;;5039770;28;19916;-64
2021/12/02 01:31:49;;;;;;;;;;;4.50;99.90;;;;;;5035735;28;19960;-61
2021/12/02 01:34:15;;;;;;;;;;;4.50;99.90;;;;;;5049730;28;20933;-61
2021/12/02 01:36:41;;;;;;;;;;;4.50;99.90;;;;;;5035542;28;20008;-62
2021/12/02 01:39:07;;;;;;;;;;;4.40;99.90;;;;;;5036034;28;19913;-63
2021/12/02 01:41:42;;;;;;;;;;;4.30;99.90;;;;;;5036580;28;19917;-61
2021/12/02 01:44:10;;;;;;;;;;;4.30;99.90;;;;;;5044521;28;20014;-63
2021/12/02 01:46:36;;;;;;;;;;;4.30;99.90;;;;;;5030268;28;19921;-63
2021/12/02 01:49:06;;;;;;;;;;;4.30;99.90;;;;;;5027816;28;20431;-63
2021/12/02 01:51:38;;;;;;;;;;;4.30;99.90;;;;;;5030162;28;19913;-62
2021/12/02 01:54:07;;;;;;;;;;;4.30;99.90;;;;;;5034056;28;19913;-62
2021/12/02 01:56:39;;;;;;;;;;;4.30;99.90;;;;;;5033335;28;19921;-62
2021/12/02 01:59:09;;;;;;;;;;;4.30;99.90;;;;;;5037227;28;20030;-63
2021/12/02 02:01:36;;;;;;;;;;;4.20;99.90;;;;;;5030248;28;19920;-62
2021/12/02 02:04:01;;;;;;;;;;;4.20;99.90;;;;;;5036141;28;19975;-63
2021/12/02 02:06:29;;;;;;;;;;;4.30;99.90;;;;;;5029439;28;19913;-63
2021/12/02 02:08:55;;;;;;;;;;;4.30;99.90;;;;;;5031802;28;20374;-63
2021/12/02 02:11:23;;;;;;;;;;;4.30;99.90;;;;;;5030804;28;20024;-62
2021/12/02 02:13:48;;;;;;;;;;;4.30;99.90;;;;;;5039776;28;20266;-62
2021/12/02 02:16:14;;;;;;;;;;;4.30;99.90;;;;;;5031707;28;19913;-63
2021/12/02 02:18:40;;;;;;;;;;;4.30;99.90;;;;;;5028460;28;19928;-62
2021/12/02 02:21:12;;;;;;;;;;;4.40;99.90;;;;;;5033079;28;19974;-63
2021/12/02 02:23:41;;;;;;;;;;;4.30;99.90;;;;;;5029013;28;19928;-62
2021/12/02 02:26:08;;;;;;;;;;;4.40;99.90;;;;;;5030510;28;19917;-62
2021/12/02 02:28:34;;;;;;;;;;;4.40;99.90;;;;;;5029893;28;19917;-61
2021/12/02 02:30:59;;;;;;;;;;;4.40;99.90;;;;;;5029386;28;19913;-62
2021/12/02 02:33:26;;;;;;;;;;;4.40;99.90;;;;;;5028879;28;20044;-62
2021/12/02 02:35:51;;;;;;;;;;;4.30;99.90;;;;;;5036321;28;20007;-62
2021/12/02 02:38:17;;;;;;;;;;;4.30;99.90;;;;;;5027513;28;20421;-61
2021/12/02 02:40:46;;;;;;;;;;;4.30;99.90;;;;;;5031376;28;20396;-62
2021/12/02 02:43:19;;;;;;;;;;;4.30;99.90;;;;;;5033271;28;19962;-61
2021/12/02 02:45:44;;;;;;;;;;;4.20;99.90;;;;;;5036309;28;19910;-62
2021/12/02 02:48:10;;;;;;;;;;;4.20;99.90;;;;;;5032785;28;20281;-61
2021/12/02 02:50:35;;;;;;;;;;;4.10;99.90;;;;;;5028147;28;20011;-62
2021/12/02 02:53:05;;;;;;;;;;;4.00;99.90;;;;;;5032451;28;19988;-63
2021/12/02 02:55:31;;;;;;;;;;;4.00;99.90;;;;;;5030097;28;19916;-62
2021/12/02 03:00:30;;;;;;;;;;;3.90;99.90;;;;;;5027195;28;22194;-61
2021/12/02 03:06:07;;;;;;;;;;;3.80;99.90;;;;;;5027055;28;20343;-62
2021/12/02 03:08:42;;;;;;;;;;;3.80;99.90;;;;;;5032393;28;19917;-62
2021/12/02 03:11:10;;;;;;;;;;;3.80;99.90;;;;;;5036646;28;19913;-61
2021/12/02 03:13:39;;;;;;;;;;;3.80;99.90;;;;;;5032212;28;19943;-61
2021/12/02 03:18:51;;;;;;;;;;;3.80;99.90;;;;;;5035643;28;19920;-62
2021/12/02 03:21:21;;;;;;;;;;;3.80;99.90;;;;;;5027567;28;20019;-61
2021/12/02 03:23:56;;;;;;;;;;;3.80;99.90;;;;;;5030660;28;19917;-62
2021/12/02 03:26:23;;;;;;;;;;;3.80;99.90;;;;;;5056991;28;19945;-61
2021/12/02 03:28:49;;;;;;;;;;;3.80;99.90;;;;;;5029797;28;20388;-61
2021/12/02 03:31:15;;;;;;;;;;;3.90;99.90;;;;;;5025276;28;19920;-62
2021/12/02 03:33:41;;;;;;;;;;;3.80;99.90;;;;;;5026846;28;19940;-62
2021/12/02 03:36:07;;;;;;;;;;;3.80;99.90;;;;;;5035329;28;19982;-62
2021/12/02 03:38:33;;;;;;;;;;;3.80;99.90;;;;;;5026996;28;19913;-62
2021/12/02 03:40:59;;;;;;;;;;;3.70;99.90;;;;;;5023818;28;19917;-61
2021/12/02 03:43:24;;;;;;;;;;;3.70;99.90;;;;;;5031746;28;19923;-62
2021/12/02 03:45:50;;;;;;;;;;;3.70;99.90;;;;;;5034169;28;19942;-61
2021/12/02 03:48:15;;;;;;;;;;;3.70;99.90;;;;;;5032511;28;19936;-61
2021/12/02 03:50:41;;;;;;;;;;;3.70;99.90;;;;;;5030367;28;19963;-62
2021/12/02 03:53:06;;;;;;;;;;;3.60;99.90;;;;;;5028419;28;20068;-63
2021/12/02 03:55:31;;;;;;;;;;;3.60;99.90;;;;;;5030489;28;19974;-62
2021/12/02 03:57:57;;;;;;;;;;;3.60;99.90;;;;;;5027958;28;19920;-62
2021/12/02 04:00:23;;;;;;;;;;;3.60;99.90;;;;;;5025363;28;19913;-62
2021/12/02 04:02:49;;;;;;;;;;;3.60;99.90;;;;;;5026627;28;20439;-62
2021/12/02 04:05:15;;;;;;;;;;;3.50;99.90;;;;;;5026451;28;19928;-62
2021/12/02 04:07:40;;;;;;;;;;;3.50;99.90;;;;;;5029666;28;19986;-62
2021/12/02 04:10:06;;;;;;;;;;;3.50;99.90;;;;;;5025905;28;19971;-62
2021/12/02 04:12:50;;;;;;;;;;;3.50;99.90;;;;;;5030968;28;19925;-62
2021/12/02 04:15:25;;;;;;;;;;;3.50;99.90;;;;;;5027287;28;20413;-62
2021/12/02 04:17:51;;;;;;;;;;;3.40;99.90;;;;;;5028330;28;19960;-62
2021/12/02 04:20:20;;;;;;;;;;;3.40;99.90;;;;;;5028711;28;19964;-62
2021/12/02 04:22:46;;;;;;;;;;;3.40;99.90;;;;;;5031016;28;19920;-62
2021/12/02 04:25:12;;;;;;;;;;;3.30;99.90;;;;;;5029703;28;19966;-62
2021/12/02 04:27:38;;;;;;;;;;;3.30;99.90;;;;;;5026655;28;20393;-62
2021/12/02 04:30:04;;;;;;;;;;;3.30;99.90;;;;;;5033198;28;19999;-62
2021/12/02 04:32:30;;;;;;;;;;;3.30;99.90;;;;;;5040247;28;20373;-62
2021/12/02 04:34:55;;;;;;;;;;;3.30;99.90;;;;;;5034536;28;19917;-62
2021/12/02 04:37:21;;;;;;;;;;;3.20;99.90;;;;;;5038342;28;20020;-61
2021/12/02 04:39:46;;;;;;;;;;;3.30;99.90;;;;;;5033728;28;19921;-62
2021/12/02 04:42:12;;;;;;;;;;;3.20;99.90;;;;;;5035363;28;20693;-61
2021/12/02 04:44:37;;;;;;;;;;;3.20;99.90;;;;;;5032563;28;20077;-61
2021/12/02 04:47:03;;;;;;;;;;;3.10;99.90;;;;;;5032335;28;20500;-61
2021/12/02 04:49:28;;;;;;;;;;;3.10;99.90;;;;;;5034918;28;19917;-62
2021/12/02 04:51:54;;;;;;;;;;;3.10;99.90;;;;;;5036385;28;20331;-62
2021/12/02 04:54:19;;;;;;;;;;;3.10;99.90;;;;;;5037144;28;20468;-62
2021/12/02 04:56:45;;;;;;;;;;;3.10;99.90;;;;;;5035145;28;19917;-62
2021/12/02 04:59:10;;;;;;;;;;;3.10;99.90;;;;;;5035089;28;19913;-61
2021/12/02 05:01:35;;;;;;;;;;;3.10;99.90;;;;;;5030980;28;20035;-61
2021/12/02 05:04:01;;;;;;;;;;;3.10;99.90;;;;;;5038789;28;19921;-62
2021/12/02 05:06:26;;;;;;;;;;;3.10;99.90;;;;;;5033762;28;20380;-62
2021/12/02 05:08:52;;;;;;;;;;;3.00;99.90;;;;;;5032563;28;20365;-61
2021/12/02 05:11:17;;;;;;;;;;;3.00;99.90;;;;;;5032453;28;20718;-61
2021/12/02 05:13:43;;;;;;;;;;;3.00;99.90;;;;;;5031579;28;20651;-62
2021/12/02 05:16:08;;;;;;;;;;;3.00;99.90;;;;;;5031926;28;19924;-62
2021/12/02 05:18:34;;;;;;;;;;;3.00;99.90;;;;;;5031491;28;19917;-61
2021/12/02 05:21:00;;;;;;;;;;;3.00;99.90;;;;;;5033796;28;20350;-62
2021/12/02 05:23:25;;;;;;;;;;;3.00;99.90;;;;;;5031603;28;20417;-62
2021/12/02 05:25:51;;;;;;;;;;;2.90;99.90;;;;;;5035108;28;20016;-62
2021/12/02 05:28:17;;;;;;;;;;;2.90;99.90;;;;;;5029612;28;19924;-62
2021/12/02 05:30:44;;;;;;;;;;;2.90;99.90;;;;;;5030195;28;19990;-61
2021/12/02 05:33:09;;;;;;;;;;;2.90;99.90;;;;;;5032017;28;19963;-61
2021/12/02 05:35:34;;;;;;;;;;;2.80;99.90;;;;;;5032124;28;19921;-62
2021/12/02 05:38:00;;;;;;;;;;;2.80;99.90;;;;;;5033050;28;20003;-63
2021/12/02 05:40:25;;;;;;;;;;;2.80;99.90;;;;;;5038265;28;19970;-63
2021/12/02 05:42:51;;;;;;;;;;;2.80;99.90;;;;;;5032742;28;19917;-63
2021/12/02 05:45:16;;;;;;;;;;;2.80;99.90;;;;;;5040347;28;20487;-63
2021/12/02 05:47:42;;;;;;;;;;;2.80;99.90;;;;;;5028775;28;19913;-63
2021/12/02 05:50:07;;;;;;;;;;;2.80;99.90;;;;;;5036157;28;19917;-63
2021/12/02 05:52:33;;;;;;;;;;;2.70;99.90;;;;;;5027497;28;20004;-62
2021/12/02 05:54:58;;;;;;;;;;;2.70;99.90;;;;;;5037707;28;19920;-63
2021/12/02 05:57:24;;;;;;;;;;;2.70;99.90;;;;;;5030227;28;19917;-62
2021/12/02 05:59:50;;;;;;;;;;;2.70;99.90;;;;;;5034563;28;19924;-63
2021/12/02 06:02:15;;;;;;;;;;;2.60;99.90;;;;;;5031449;28;19917;-62
2021/12/02 06:04:42;;;;;;;;;;;2.60;99.90;;;;;;5028330;28;20377;-62
2021/12/02 06:07:08;;;;;;;;;;;2.60;99.90;;;;;;5027455;28;19917;-63
2021/12/02 06:09:33;;;;;;;;;;;2.60;99.90;;;;;;5029291;28;19940;-61
2021/12/02 06:11:59;;;;;;;;;;;2.60;99.90;;;;;;5031534;28;19913;-63
2021/12/02 06:14:24;;;;;;;;;;;2.60;99.90;;;;;;5029127;28;20374;-63
2021/12/02 06:16:50;;;;;;;;;;;2.60;99.90;;;;;;5030282;28;20164;-62
2021/12/02 06:19:15;;;;;;;;;;;2.70;99.90;;;;;;5033736;28;19970;-62
2021/12/02 06:21:41;;;;;;;;;;;2.70;99.90;;;;;;5034879;28;19916;-62
2021/12/02 06:24:07;;;;;;;;;;;2.70;99.90;;;;;;5027574;28;19978;-62
2021/12/02 06:26:33;;;;;;;;;;;2.70;99.90;;;;;;5031652;28;19917;-61
2021/12/02 06:28:58;;;;;;;;;;;2.70;99.90;;;;;;5026490;28;19924;-62
2021/12/02 06:31:24;;;;;;;;;;;2.60;99.90;;;;;;5027381;28;19916;-63
2021/12/02 06:33:50;;;;;;;;;;;2.60;99.90;;;;;;5028371;28;19917;-62
2021/12/02 06:36:15;;;;;;;;;;;2.60;99.90;;;;;;5031388;28;20000;-62
2021/12/02 06:38:42;;;;;;;;;;;2.60;99.90;;;;;;5031227;28;19917;-60
2021/12/02 06:41:07;;;;;;;;;;;2.70;99.90;;;;;;5038063;28;19914;-61
2021/12/02 06:43:33;;;;;;;;;;;2.70;99.90;;;;;;5029155;28;19928;-61
2021/12/02 06:45:58;;;;;;;;;;;2.80;99.90;;;;;;5032772;28;19913;-63
2021/12/02 06:48:24;;;;;;;;;;;2.80;99.90;;;;;;5030880;28;20051;-62
2021/12/02 06:50:49;;;;;;;;;;;2.90;99.90;;;;;;5029455;28;19996;-61
2021/12/02 06:53:17;;;;;;;;;;;2.90;99.90;;;;;;5023094;28;20274;-64
2021/12/02 06:55:42;;;;;;;;;;;2.90;99.90;;;;;;5028274;28;19947;-63
2021/12/02 06:58:08;;;;;;;;;;;2.90;99.90;;;;;;5031701;28;20003;-63
2021/12/02 07:00:34;;;;;;;;;;;3.00;99.90;;;;;;5033580;28;20035;-62
2021/12/02 07:03:01;;;;;;;;;;;3.00;99.90;;;;;;5036024;28;19924;-64
2021/12/02 07:05:29;;;;;;;;;;;3.00;99.90;;;;;;5028794;28;19914;-63
2021/12/02 07:07:55;;;;;;;;;;;3.00;99.90;;;;;;5036628;28;19971;-63
2021/12/02 07:10:23;;;;;;;;;;;3.60;99.90;;;;;;5029789;28;19913;-63
2021/12/02 07:12:54;;;;;;;;;;;4.10;99.90;;;;;;5029314;28;19917;-62
2021/12/02 07:15:21;;;;;;;;;;;4.00;99.90;;;;;;5028554;28;20328;-64
2021/12/02 07:17:51;;;;;;;;;;;3.80;99.90;;;;;;5028779;28;21786;-64
2021/12/02 07:20:16;;;;;;;;;;;3.50;99.90;;;;;;5034202;28;19952;-63
2021/12/02 07:22:42;;;;;;;;;;;3.30;99.90;;;;;;5028782;28;20026;-63
2021/12/02 07:25:07;;;;;;;;;;;3.20;99.90;;;;;;5031092;28;19962;-63
2021/12/02 07:27:33;;;;;;;;;;;3.00;99.90;;;;;;5039601;28;20274;-63
2021/12/02 07:29:58;;;;;;;;;;;3.00;99.90;;;;;;5027494;28;20437;-64
2021/12/02 07:32:36;;;;;;;;;;;2.90;99.90;;;;;;5027803;28;19920;-63
2021/12/02 07:35:03;;;;;;;;;;;2.80;99.90;;;;;;5037517;28;20364;-63
2021/12/02 07:37:29;;;;;;;;;;;2.80;99.90;;;;;;5032899;28;20369;-63
2021/12/02 07:39:55;;;;;;;;;;;2.70;99.90;;;;;;5032653;28;19920;-63
2021/12/02 07:42:20;;;;;;;;;;;2.70;99.90;;;;;;5039297;22;20168;-64
2021/12/02 07:44:46;;;;;;;;;;;2.70;99.90;;;;;;5026547;28;19932;-65
2021/12/02 07:47:12;;;;;;;;;;;2.70;99.90;;;;;;5027947;28;20291;-65
2021/12/02 07:49:37;;;;;;;;;;;2.70;99.90;;;;;;5006429;28;20277;-64
2021/12/02 07:52:04;;;;;;;;;;;2.70;99.90;;;;;;5028162;28;19917;-63
2021/12/02 07:54:32;;;;;;;;;;;2.80;99.90;;;;;;5023262;28;19917;-64
2021/12/02 07:56:57;;;;;;;;;;;2.80;99.90;;;;;;5034052;22;20302;-67
2021/12/02 07:59:23;;;;;;;;;;;2.80;99.90;;;;;;5024181;28;19914;-67
2021/12/02 08:01:49;;;;;;;;;;;2.80;99.90;;;;;;5024585;28;19924;-67
2021/12/02 08:04:14;;;;;;;;;;;2.80;99.90;;;;;;5027265;28;19925;-66
2021/12/02 08:06:40;;;;;;;;;;;2.80;99.90;;;;;;5025746;28;19924;-66
2021/12/02 08:09:06;;;;;;;;;;;2.90;99.90;;;;;;5022406;28;19913;-68
2021/12/02 08:11:32;;;;;;;;;;;2.90;99.90;;;;;;5025885;28;19924;-67
2021/12/02 08:13:57;;;;;;;;;;;2.90;99.90;;;;;;5024310;28;19920;-68
2021/12/02 08:16:23;;;;;;;;;;;2.90;99.90;;;;;;5026546;28;19917;-68
2021/12/02 08:18:48;;;;;;;;;;;2.90;99.90;;;;;;5024823;28;19921;-68
2021/12/02 08:21:14;;;;;;;;;;;2.90;99.90;;;;;;5024154;28;19917;-67
2021/12/02 08:23:39;;;;;;;;;;;2.90;99.90;;;;;;5025603;28;19921;-67
2021/12/02 08:26:05;;;;;;;;;;;2.90;99.90;;;;;;5021706;28;19956;-67
2021/12/02 08:28:30;;;;;;;;;;;2.90;99.90;;;;;;5022682;28;19914;-67
2021/12/02 08:30:57;;;;;;;;;;;2.90;99.90;;;;;;5004215;28;20032;-67
2021/12/02 08:33:23;;;;;;;;;;;3.00;99.90;;;;;;5026135;28;19917;-67
2021/12/02 08:35:48;;;;;;;;;;;3.00;99.90;;;;;;5026278;28;19920;-68
2021/12/02 08:38:16;;;;;;;;;;;3.10;99.90;;;;;;5021529;28;20459;-68
2021/12/02 08:40:42;;;;;;;;;;;3.10;99.90;;;;;;5025731;28;19917;-67
2021/12/02 08:43:09;;;;;;;;;;;3.20;99.90;;;;;;5023694;28;20011;-69
2021/12/02 08:45:35;;;;;;;;;;;3.30;99.90;;;;;;5004174;28;19995;-68
2021/12/02 08:48:02;;;;;;;;;;;3.30;99.90;;;;;;5005064;28;20311;-69
2021/12/02 08:50:28;;;;;;;;;;;3.40;99.90;;;;;;5024705;28;19913;-69
2021/12/02 08:52:54;;;;;;;;;;;3.40;99.90;;;;;;5026253;28;19940;-69
2021/12/02 08:55:20;;;;;;;;;;;3.40;99.90;;;;;;5026168;28;19913;-71
2021/12/02 08:57:47;;;;;;;;;;;3.50;99.90;;;;;;5004424;28;19928;-70
2021/12/02 09:00:14;;;;;;;;;;;3.40;99.90;;;;;;5021980;28;19975;-70
2021/12/02 09:02:39;;;;;;;;;;;3.50;99.90;;;;;;5023527;28;19913;-70
2021/12/02 09:05:05;;;;;;;;;;;3.50;99.90;;;;;;5023625;28;20326;-70
2021/12/02 09:07:31;;;;;;;;;;;3.50;99.90;;;;;;5024440;28;19924;-70
2021/12/02 09:09:57;;;;;;;;;;;3.60;99.90;;;;;;5022310;28;20379;-70
2021/12/02 09:12:23;;;;;;;;;;;3.60;99.90;;;;;;5026193;28;20284;-70
2021/12/02 09:14:48;;;;;;;;;;;3.60;99.90;;;;;;5022351;28;19913;-69
2021/12/02 09:17:14;;;;;;;;;;;3.60;99.90;;;;;;5028548;28;19919;-69
2021/12/02 09:19:39;;;;;;;;;;;3.60;99.90;;;;;;5027160;28;19937;-69
2021/12/02 09:22:04;;;;;;;;;;;3.60;99.90;;;;;;5029307;28;19921;-68
2021/12/02 09:24:30;;;;;;;;;;;3.60;99.90;;;;;;5025536;28;20261;-70
2021/12/02 09:26:55;;;;;;;;;;;3.60;99.90;;;;;;5007989;28;20426;-70
2021/12/02 09:29:22;;;;;;;;;;;3.70;99.90;;;;;;5026483;28;19914;-69
2021/12/02 09:31:48;;;;;;;;;;;3.70;99.90;;;;;;5030411;28;19913;-69
2021/12/02 09:34:15;;;;;;;;;;;3.70;99.90;;;;;;5023966;28;19917;-70
2021/12/02 09:36:40;;;;;;;;;;;3.70;99.90;;;;;;5027935;28;20342;-70
2021/12/02 09:39:07;;;;;;;;;;;3.80;99.90;;;;;;5026282;28;19917;-70
2021/12/02 09:41:33;;;;;;;;;;;3.80;99.90;;;;;;5026958;28;19938;-69
2021/12/02 09:43:59;;;;;;;;;;;3.70;99.90;;;;;;5026439;28;19936;-70
2021/12/02 09:46:24;;;;;;;;;;;3.70;99.90;;;;;;5027297;28;19924;-69
2021/12/02 09:48:51;;;;;;;;;;;3.70;99.90;;;;;;5026749;28;19909;-70
2021/12/02 09:51:22;;;;;;;;;;;3.70;99.90;;;;;;5028136;28;19913;-70
2021/12/02 09:53:57;;;;;;;;;;;3.70;99.90;;;;;;5027803;28;20020;-70
2021/12/02 09:56:27;;;;;;;;;;;3.60;99.90;;;;;;5026698;28;19919;-70
2021/12/02 09:58:54;;;;;;;;;;;3.60;99.90;;;;;;5026669;28;20410;-70
2021/12/02 10:01:24;;;;;;;;;;;3.60;99.90;;;;;;5027624;28;19927;-69
2021/12/02 10:03:58;;;;;;;;;;;3.60;99.90;;;;;;5029637;28;19917;-70
2021/12/02 10:06:28;;;;;;;;;;;3.60;99.90;;;;;;5024837;28;20277;-70
2021/12/02 10:11:45;;;;;;;;;;;3.60;99.90;;;;;;5026772;28;20012;-69
2021/12/02 10:14:12;;;;;;;;;;;3.60;99.90;;;;;;5025811;28;19963;-70
2021/12/02 10:16:42;;;;;;;;;;;3.60;99.90;;;;;;5026094;28;19918;-71
2021/12/02 10:19:12;;;;;;;;;;;3.60;99.90;;;;;;5025558;28;19957;-71
2021/12/02 10:22:27;;;;;;;;;;;3.70;99.90;;;;;;5025511;28;19991;-71
2021/12/02 10:24:28;;;;;;;;;;;3.70;99.90;;;;;;5012124;28;19971;-70
2021/12/02 10:27:04;;;;;;;;;;;3.70;99.90;;;;;;5008652;28;19917;-70
2021/12/02 10:29:31;;;;;;;;;;;3.70;99.90;;;;;;5024533;28;19932;-70
2021/12/02 10:32:16;;;;;;;;;;;3.70;99.90;;;;;;5027127;28;19936;-71
2021/12/02 10:34:54;;;;;;;;;;;3.70;99.90;;;;;;5025140;28;20434;-69
2021/12/02 10:37:21;;;;;;;;;;;3.80;99.90;;;;;;5026509;28;20335;-70
2021/12/02 10:40:03;;;;;;;;;;;3.80;99.90;;;;;;5024154;28;19964;-70
2021/12/02 10:42:30;;;;;;;;;;;3.80;99.90;;;;;;5024570;28;20318;-70
2021/12/02 10:45:00;;;;;;;;;;;3.90;99.90;;;;;;5025690;28;19913;-70
2021/12/02 10:47:26;;;;;;;;;;;4.00;99.90;;;;;;5004060;28;20342;-70
2021/12/02 10:49:53;;;;;;;;;;;4.00;99.90;;;;;;5024119;28;19917;-69
2021/12/02 10:52:31;;;;;;;;;;;4.00;99.90;;;;;;5026011;28;19921;-70
2021/12/02 10:55:02;;;;;;;;;;;4.00;99.90;;;;;;5023946;28;19914;-69
2021/12/02 10:57:30;;;;;;;;;;;4.00;99.90;;;;;;5025897;28;19969;-70
2021/12/02 10:59:57;;;;;;;;;;;4.10;99.90;;;;;;5026376;28;19917;-70
2021/12/02 11:02:23;;;;;;;;;;;4.10;99.90;;;;;;5026613;28;19913;-70
2021/12/02 11:05:00;;;;;;;;;;;4.20;99.90;;;;;;5027960;28;20303;-70
2021/12/02 11:07:28;;;;;;;;;;;4.20;99.90;;;;;;5025190;28;20060;-70
2021/12/02 11:09:54;;;;;;;;;;;4.20;99.90;;;;;;5026718;28;19913;-71
2021/12/02 11:12:22;;;;;;;;;;;4.30;99.90;;;;;;5025213;28;19951;-70
2021/12/02 11:14:52;;;;;;;;;;;4.40;99.90;;;;;;5022297;28;20063;-70
2021/12/02 11:17:18;;;;;;;;;;;4.40;99.90;;;;;;5028411;28;19920;-71
2021/12/02 11:19:48;;;;;;;;;;;4.50;99.90;;;;;;5027259;28;19917;-70
2021/12/02 11:22:15;;;;;;;;;;;4.50;99.90;;;;;;5024570;28;20106;-70
2021/12/02 11:24:41;;;;;;;;;;;4.60;99.90;;;;;;5027900;28;20471;-70
2021/12/02 11:27:08;;;;;;;;;;;4.70;99.90;;;;;;5027419;28;19922;-70
2021/12/02 11:29:46;;;;;;;;;;;4.70;99.90;;;;;;5023206;28;19917;-70
2021/12/02 11:32:30;;;;;;;;;;;4.70;99.90;;;;;;5017328;28;20380;-70
2021/12/02 11:35:00;;;;;;;;;;;4.70;99.90;;;;;;5025799;28;20422;-70
2021/12/02 11:37:26;;;;;;;;;;;4.60;99.30;;;;;;5022779;28;20338;-70
2021/12/02 11:39:52;;;;;;;;;;;4.60;97.10;;;;;;5025008;28;19917;-66
2021/12/02 11:42:18;;;;;;;;;;;4.70;99.90;;;;;;5022180;28;20008;-68
2021/12/02 11:44:44;;;;;;;;;;;5.20;98.30;;;;;;5026763;28;20008;-69
2021/12/02 11:47:09;;;;;;;;;;;5.20;97.90;;;;;;5025914;28;19921;-69
2021/12/02 11:49:35;;;;;;;;;;;5.00;97.50;;;;;;5024647;28;20457;-69
2021/12/02 11:52:01;;;;;;;;;;;4.90;96.60;;;;;;5026802;28;19913;-69
2021/12/02 11:54:26;;;;;;;;;;;4.70;96.20;;;;;;5022629;28;19921;-69
2021/12/02 11:56:52;;;;;;;;;;;4.50;96.70;;;;;;5023004;28;19917;-72
2021/12/02 11:59:18;;;;;;;;;;;4.50;96.80;;;;;;5014359;28;19913;-70
2021/12/02 12:01:43;;;;;;;;;;;4.40;97.20;;;;;;5025685;28;20070;-68
2021/12/02 12:04:10;;;;;;;;;;;4.40;97.40;;;;;;5028396;28;20403;-68
2021/12/02 12:06:37;;;;;;;;;;;4.40;97.60;;;;;;5026409;28;19917;-68
2021/12/02 12:09:10;;;;;;;;;;;4.40;98.00;;;;;;5025773;28;19994;-68
2021/12/02 12:11:36;;;;;;;;;;;4.50;98.10;;;;;;5024404;28;19917;-64
2021/12/02 12:14:02;;;;;;;;;;;4.60;98.10;;;;;;5026252;28;19978;-65
2021/12/02 12:16:36;;;;;;;;;;;4.60;98.30;;;;;;5022316;28;19913;-65
2021/12/02 12:19:21;;;;;;;;;;;4.70;97.70;;;;;;5023714;28;19917;-65
2021/12/02 12:21:56;;;;;;;;;;;4.80;97.90;;;;;;5026064;28;20376;-66
2021/12/02 12:24:41;;;;;;;;;;;4.80;97.80;;;;;;5025146;28;20020;-66
2021/12/02 12:27:14;;;;;;;;;;;5.00;97.90;;;;;;5016195;28;20320;-66
2021/12/02 12:29:39;;;;;;;;;;;5.10;97.60;;;;;;5021897;28;19921;-66
2021/12/02 12:32:22;;;;;;;;;;;5.10;96.10;;;;;;5027649;28;19924;-65
2021/12/02 12:34:58;;;;;;;;;;;5.10;95.80;;;;;;5025719;28;19963;-66
2021/12/02 12:37:30;;;;;;;;;;;5.10;94.20;;;;;;5016740;28;19959;-65
2021/12/02 12:40:11;;;;;;;;;;;5.00;93.70;;;;;;5023885;28;20434;-66
2021/12/02 12:42:38;;;;;;;;;;;5.00;93.10;;;;;;5024621;28;20032;-65
2021/12/02 12:45:05;;;;;;;;;;;4.90;93.00;;;;;;5024613;28;19914;-66
2021/12/02 12:47:43;;;;;;;;;;;4.80;93.20;;;;;;5025605;28;19994;-66
2021/12/02 12:50:27;;;;;;;;;;;4.80;93.40;;;;;;5024217;28;19921;-66
2021/12/02 12:53:04;;;;;;;;;;;4.70;93.40;;;;;;5028891;28;19920;-65
2021/12/02 12:55:30;;;;;;;;;;;4.70;93.40;;;;;;5030706;28;19913;-65
2021/12/02 12:58:05;;;;;;;;;;;4.70;93.60;;;;;;5029726;28;19924;-65
2021/12/02 13:00:39;;;;;;;;;;;4.60;93.60;;;;;;5000071;28;20208;-66
2021/12/02 13:03:11;;;;;;;;;;;4.60;94.10;;;;;;5030097;28;19925;-65
2021/12/02 13:06:00;;;;;;;;;;;4.50;94.20;;;;;;5030585;28;19943;-65
2021/12/02 13:08:34;;;;;;;;;;;4.50;94.20;;;;;;5027830;28;19921;-65
2021/12/02 13:11:02;;;;;;;;;;;4.40;94.30;;;;;;5021256;28;19959;-65
2021/12/02 13:13:29;;;;;;;;;;;4.30;94.60;;;;;;5025878;28;19941;-65
2021/12/02 13:16:30;;;;;;;;;;;4.30;94.60;;;;;;5009264;28;19928;-66
2021/12/02 13:18:59;;;;;;;;;;;4.20;95.00;;;;;;5027159;28;20035;-65
2021/12/02 13:21:27;;;;;;;;;;;4.10;95.20;;;;;;5030348;28;19909;-65
2021/12/02 13:24:01;;;;;;;;;;;4.10;95.10;;;;;;5028435;28;19921;-65
2021/12/02 13:26:27;;;;;;;;;;;4.00;94.50;;;;;;5027635;28;19917;-65
2021/12/02 13:28:55;;;;;;;;;;;3.90;94.80;;;;;;5029426;28;20318;-66
2021/12/02 13:31:22;;;;;;;;;;;3.90;95.00;;;;;;5024257;28;19920;-65
2021/12/02 13:33:50;;;;;;;;;;;3.90;95.10;;;;;;5029908;28;19964;-65
2021/12/02 13:36:17;;;;;;;;;;;3.90;95.30;;;;;;5030292;28;19917;-64
2021/12/02 13:38:58;;;;;;;;;;;3.80;95.40;;;;;;5026373;28;19913;-66
2021/12/02 13:41:23;;;;;;;;;;;3.80;95.60;;;;;;5029405;28;19952;-67
2021/12/02 13:43:57;;;;;;;;;;;3.70;95.80;;;;;;5027721;28;19991;-66
2021/12/02 13:46:37;;;;;;;;;;;3.60;96.00;;;;;;5025068;28;19928;-66
2021/12/02 13:49:04;;;;;;;;;;;3.60;96.30;;;;;;5026260;28;19952;-65
2021/12/02 13:54:22;;;;;;;;;;;3.50;96.70;;;;;;5030890;28;19920;-66
2021/12/02 13:56:48;;;;;;;;;;;3.40;96.90;;;;;;5034183;22;19920;-67
2021/12/02 13:59:15;;;;;;;;;;;3.40;97.10;;;;;;5026569;28;19933;-67
2021/12/02 14:01:51;;;;;;;;;;;3.30;97.30;;;;;;5011965;28;19940;-68
2021/12/02 14:04:17;;;;;;;;;;;3.30;97.30;;;;;;5029265;28;19922;-68
2021/12/02 14:06:42;;;;;;;;;;;3.30;97.40;;;;;;5010300;28;20019;-67
2021/12/02 14:09:17;;;;;;;;;;;3.30;97.60;;;;;;5026875;28;19913;-67
2021/12/02 14:11:44;;;;;;;;;;;3.30;97.70;;;;;;5025312;28;19979;-67
2021/12/02 14:14:16;;;;;;;;;;;3.30;97.70;;;;;;5025677;28;19924;-68
2021/12/02 14:16:42;;;;;;;;;;;3.30;97.80;;;;;;5027447;28;20291;-68
2021/12/02 14:19:08;;;;;;;;;;;3.30;97.90;;;;;;5024006;28;19909;-68
2021/12/02 14:21:33;;;;;;;;;;;3.20;98.00;;;;;;5023029;28;20020;-69
2021/12/02 14:23:59;;;;;;;;;;;3.30;98.30;;;;;;5028813;28;20007;-69
2021/12/02 14:26:26;;;;;;;;;;;3.30;98.50;;;;;;5024734;28;20404;-69
2021/12/02 14:28:54;;;;;;;;;;;3.30;98.60;;;;;;5026627;28;19956;-68
2021/12/02 14:31:25;;;;;;;;;;;3.30;98.90;;;;;;5025931;28;19963;-68
2021/12/02 14:33:53;;;;;;;;;;;3.30;99.10;;;;;;5025295;28;19917;-67
2021/12/02 14:36:22;;;;;;;;;;;3.30;99.00;;;;;;5028615;28;19913;-67
2021/12/02 14:38:58;;;;;;;;;;;3.40;99.00;;;;;;5010292;28;20346;-66
2021/12/02 14:41:31;;;;;;;;;;;3.40;99.10;;;;;;5029021;28;19931;-66
2021/12/02 14:44:01;;;;;;;;;;;3.40;99.20;;;;;;5020993;28;20071;-67
2021/12/02 14:46:26;;;;;;;;;;;3.40;99.50;;;;;;5026375;28;19917;-67
2021/12/02 14:49:05;;;;;;;;;;;3.40;99.50;;;;;;5028200;28;19919;-66
2021/12/02 14:51:49;;;;;;;;;;;3.30;99.70;;;;;;5028594;28;19913;-67